Time;durP1;ratioP1;P1;durP2;ratioP2;P2;SDS_P1;SDS_P2;PMS_P1;PMS_P2;Temp;Humidity;BMP_temperature;BMP_pressure;BME280_temperature;BME280_humidity;BME280_pressure;Samples;Min_cycle;Max_cycle;Signal;HPM_P1;HPM_P2
2022/10/08 00:01:01;;;;;;;13.43;6.30;;;;;;;-143.84;87.98;45136.66;5092200;28;20493;-77
2022/10/08 00:03:30;;;;;;;11.43;6.87;;;;;;;-143.84;88.05;45110.00;5092366;28;20449;-77
2022/10/08 00:05:59;;;;;;;12.10;7.23;;;;;;;-143.84;88.39;45106.19;5092572;28;20488;-77
2022/10/08 00:08:28;;;;;;;9.73;6.33;;;;;;;-143.84;88.73;45092.88;5092212;28;20505;-77
2022/10/08 00:10:59;;;;;;;10.00;7.63;;;;;;;-143.84;89.19;45100.47;5092087;28;20461;-77
2022/10/08 00:13:28;;;;;;;11.93;6.70;;;;;;;-143.84;89.63;45119.53;5092082;28;20816;-77
2022/10/08 00:15:56;;;;;;;12.13;6.93;;;;;;;-143.84;89.49;45094.78;5092285;28;20981;-77
2022/10/08 00:18:23;;;;;;;24.80;8.83;;;;;;;-143.84;89.49;45115.72;5091387;28;20521;-77
2022/10/08 00:20:50;;;;;;;14.37;8.13;;;;;;;-143.84;89.58;45104.28;5092200;28;20439;-72
2022/10/08 00:23:18;;;;;;;17.57;7.47;;;;;;;-143.84;89.81;45106.19;5091612;28;20784;-71
2022/10/08 00:25:46;;;;;;;14.90;7.50;;;;;;;-143.84;89.84;45129.03;5091641;28;20443;-72
2022/10/08 00:28:15;;;;;;;15.67;7.80;;;;;;;-143.84;89.67;45127.13;5091485;28;21185;-72
2022/10/08 00:30:43;;;;;;;11.27;7.83;;;;;;;-143.84;89.87;45125.22;5091389;28;20497;-71
2022/10/08 00:33:11;;;;;;;11.03;8.13;;;;;;;-143.84;89.94;45134.75;5091750;28;20442;-72
2022/10/08 00:35:38;;;;;;;10.57;7.87;;;;;;;-143.84;89.92;45104.28;5091007;28;20518;-71
2022/10/08 00:38:06;;;;;;;12.20;8.30;;;;;;;-143.84;89.87;45104.28;5091221;28;20436;-72
2022/10/08 00:40:42;;;;;;;9.57;7.80;;;;;;;-143.84;90.05;45132.84;5091378;28;20503;-72
2022/10/08 00:43:15;;;;;;;12.43;8.17;;;;;;;-143.84;90.06;45106.19;5101555;28;20524;-72
2022/10/08 00:45:43;;;;;;;14.10;8.80;;;;;;;-143.84;90.11;45092.88;5111591;28;20447;-72
2022/10/08 00:48:13;;;;;;;15.20;7.77;;;;;;;-143.84;89.82;45140.47;5111684;28;20442;-71
2022/10/08 00:50:40;;;;;;;12.87;7.70;;;;;;;-143.84;89.33;45098.56;5111497;28;20442;-71
2022/10/08 00:53:08;;;;;;;9.50;7.93;;;;;;;-143.84;88.89;45150.00;5111603;28;20442;-72
2022/10/08 00:55:38;;;;;;;10.47;8.27;;;;;;;-143.84;88.44;45102.38;5111071;28;20478;-72
2022/10/08 00:58:12;;;;;;;10.00;7.40;;;;;;;-143.84;88.41;45087.16;5111078;28;20450;-72
2022/10/08 01:00:41;;;;;;;8.33;7.20;;;;;;;-143.84;88.45;45110.00;5111026;28;20443;-72
2022/10/08 01:03:08;;;;;;;11.00;7.63;;;;;;;-143.84;88.45;45110.00;5111174;28;20960;-72
2022/10/08 01:05:48;;;;;;;11.93;8.03;;;;;;;-143.84;88.70;45117.63;5111058;28;20449;-72
2022/10/08 01:08:22;;;;;;;10.90;7.70;;;;;;;-143.84;88.42;45113.81;5111245;28;20866;-72
2022/10/08 01:10:57;;;;;;;11.23;7.40;;;;;;;-143.84;88.38;45096.66;5111179;28;20924;-72
2022/10/08 01:13:36;;;;;;;9.47;8.27;;;;;;;-143.84;88.48;45129.03;5110776;28;20506;-72
2022/10/08 01:16:16;;;;;;;9.63;7.93;;;;;;;-143.84;88.19;45121.44;5111025;28;20486;-72
2022/10/08 01:18:52;;;;;;;9.40;8.30;;;;;;;-143.84;88.06;45092.88;5110832;28;20969;-72
2022/10/08 01:21:30;;;;;;;20.70;9.17;;;;;;;-143.84;87.62;45111.91;5110839;28;20437;-71
2022/10/08 01:25:31;;;;;;;15.53;8.33;;;;;;;-143.84;87.83;45121.44;5110640;28;20442;-71
2022/10/08 01:27:28;;;;;;;10.33;8.13;;;;;;;-143.84;88.23;45106.19;5110602;28;20429;-71
2022/10/08 01:29:58;;;;;;;10.03;8.60;;;;;;;-143.84;88.41;45115.72;5110792;28;20447;-71
2022/10/08 01:32:29;;;;;;;13.03;9.17;;;;;;;-143.84;88.27;45117.63;5110835;28;20442;-71
2022/10/08 01:35:01;;;;;;;12.03;8.53;;;;;;;-143.84;88.50;45129.03;5110391;28;20481;-71
2022/10/08 01:37:32;;;;;;;10.63;8.10;;;;;;;-143.84;88.50;45123.34;5110304;28;20449;-71
2022/10/08 01:40:03;;;;;;;11.67;8.10;;;;;;;-143.84;88.70;45117.63;5110753;28;20433;-71
2022/10/08 01:42:34;;;;;;;9.60;7.73;;;;;;;-143.84;88.93;45117.63;5110104;28;20478;-71
2022/10/08 01:45:05;;;;;;;9.03;8.13;;;;;;;-143.84;89.12;45117.63;5110119;28;20508;-71
2022/10/08 01:47:38;;;;;;;12.07;8.33;;;;;;;-143.84;89.17;45121.44;5110253;28;20438;-72
2022/10/08 01:50:12;;;;;;;10.50;9.37;;;;;;;-143.84;89.11;45117.63;5110112;28;20451;-71
2022/10/08 01:52:46;;;;;;;10.87;8.37;;;;;;;-143.84;89.12;45123.34;5110134;28;20438;-71
2022/10/08 01:55:18;;;;;;;12.07;8.57;;;;;;;-143.84;89.09;45129.03;5109903;28;20485;-72
2022/10/08 01:57:49;;;;;;;12.03;8.00;;;;;;;-143.84;89.16;45140.47;5110107;28;20518;-72
2022/10/08 02:00:17;;;;;;;18.27;9.23;;;;;;;-143.84;89.34;45119.53;5110552;28;20435;-72
2022/10/08 02:02:44;;;;;;;13.50;8.87;;;;;;;-143.84;89.34;45115.72;5110105;28;20445;-72
2022/10/08 02:05:12;;;;;;;15.30;9.63;;;;;;;-143.84;89.12;45136.66;5109930;28;20445;-71
2022/10/08 02:07:41;;;;;;;17.80;9.47;;;;;;;-143.84;89.23;45130.94;5109967;28;20447;-71
2022/10/08 02:10:11;;;;;;;14.33;10.40;;;;;;;-143.84;89.25;45136.66;5109966;28;20446;-72
2022/10/08 02:12:40;;;;;;;10.70;9.60;;;;;;;-143.84;89.33;45119.53;5109971;28;20858;-72
2022/10/08 02:15:13;;;;;;;13.30;9.63;;;;;;;-143.84;89.21;45150.00;5109784;28;20485;-72
2022/10/08 02:17:53;;;;;;;9.73;8.73;;;;;;;-143.84;89.37;45134.75;5109652;28;20448;-72
2022/10/08 02:20:26;;;;;;;28.13;9.70;;;;;;;-143.84;89.62;45104.28;5109691;28;21038;-72
2022/10/08 02:22:59;;;;;;;25.07;9.90;;;;;;;-143.84;89.72;45127.13;5109011;28;20495;-72
2022/10/08 02:25:33;;;;;;;13.17;9.50;;;;;;;-143.84;90.05;45123.34;5109512;28;20502;-71
2022/10/08 02:28:10;;;;;;;18.77;10.17;;;;;;;-143.84;89.89;45121.44;5108573;28;20796;-72
2022/10/08 02:30:47;;;;;;;12.67;10.10;;;;;;;-143.84;89.92;45115.72;5109097;28;20445;-72
2022/10/08 02:33:21;;;;;;;16.30;11.20;;;;;;;-143.84;90.07;45125.22;5109433;28;20450;-71
2022/10/08 02:35:52;;;;;;;14.03;9.97;;;;;;;-143.84;90.17;45130.94;5109621;28;20551;-72
2022/10/08 02:38:23;;;;;;;15.97;10.33;;;;;;;-143.84;89.99;45121.44;5109608;28;20797;-71
2022/10/08 02:40:53;;;;;;;13.90;10.07;;;;;;;-143.84;90.02;45104.28;5109247;28;20427;-71
2022/10/08 02:43:25;;;;;;;14.83;10.93;;;;;;;-143.84;89.75;45119.53;5108780;28;20485;-71
2022/10/08 02:46:00;;;;;;;13.00;10.60;;;;;;;-143.84;89.54;45125.22;5109261;28;20447;-71
2022/10/08 02:48:31;;;;;;;17.67;10.83;;;;;;;-143.84;89.68;45140.47;5108956;28;20448;-71
2022/10/08 02:51:02;;;;;;;15.97;10.90;;;;;;;-143.84;89.84;45125.22;5108712;28;20434;-71
2022/10/08 02:53:30;;;;;;;16.30;11.70;;;;;;;-143.84;89.56;45140.47;5108323;28;20462;-72
2022/10/08 02:56:08;;;;;;;15.10;10.83;;;;;;;-143.84;89.28;45119.53;5108540;28;20550;-71
2022/10/08 02:58:35;;;;;;;17.47;11.77;;;;;;;-143.84;89.33;45106.19;5109396;28;20475;-71
2022/10/08 03:01:10;;;;;;;23.20;11.47;;;;;;;-143.84;89.50;45146.19;5109516;28;20442;-71
2022/10/08 03:03:42;;;;;;;17.33;11.00;;;;;;;-143.84;89.53;45110.00;5109510;28;20873;-71
2022/10/08 03:06:11;;;;;;;16.60;10.80;;;;;;;-143.84;89.51;45119.53;5109074;28;20506;-71
2022/10/08 03:08:43;;;;;;;17.90;12.00;;;;;;;-143.84;89.72;45125.22;5109091;28;20439;-72
2022/10/08 03:11:12;;;;;;;18.80;10.53;;;;;;;-143.84;89.55;45094.78;5109252;28;20447;-71
2022/10/08 03:13:43;;;;;;;22.40;12.73;;;;;;;-143.84;89.59;45151.91;5109346;28;20439;-71
2022/10/08 03:16:15;;;;;;;13.50;12.10;;;;;;;-143.84;89.70;45148.09;5109155;28;20539;-72
2022/10/08 03:18:43;;;;;;;21.63;13.00;;;;;;;-143.84;89.71;45127.13;5109283;28;21004;-71
2022/10/08 03:21:13;;;;;;;24.10;13.90;;;;;;;-143.84;89.70;45119.53;5109085;28;20473;-71
2022/10/08 03:23:40;;;;;;;20.50;14.37;;;;;;;-143.84;90.10;45150.00;5109135;28;20479;-71
2022/10/08 03:26:07;;;;;;;16.00;12.73;;;;;;;-143.84;90.69;45140.47;5109045;28;20500;-72
2022/10/08 03:28:34;;;;;;;17.80;14.60;;;;;;;-143.84;90.93;45108.09;5109042;28;21017;-71
2022/10/08 03:31:04;;;;;;;17.13;14.70;;;;;;;-143.84;91.36;45115.72;5109378;28;20447;-71
2022/10/08 03:33:33;;;;;;;28.40;15.57;;;;;;;-143.84;91.75;45117.63;5109034;28;20531;-71
2022/10/08 03:36:00;;;;;;;21.13;15.57;;;;;;;-143.84;92.13;45138.56;5108820;28;20857;-71
2022/10/08 03:38:28;;;;;;;20.67;15.03;;;;;;;-143.84;92.13;45127.13;5108861;28;20452;-71
2022/10/08 03:40:56;;;;;;;23.93;13.73;;;;;;;-143.84;92.32;45151.91;5108797;28;20447;-71
2022/10/08 03:43:24;;;;;;;19.97;14.50;;;;;;;-143.84;92.06;45119.53;5108594;28;20482;-72
2022/10/08 03:45:52;;;;;;;17.03;12.57;;;;;;;-143.84;90.46;45134.75;5108719;28;20482;-72
2022/10/08 03:48:20;;;;;;;14.17;12.27;;;;;;;-143.84;89.40;45121.44;5108863;28;20446;-71
2022/10/08 03:50:53;;;;;;;16.17;11.17;;;;;;;-143.84;88.46;45155.69;5108653;28;21010;-72
2022/10/08 03:53:20;;;;;;;17.97;12.90;;;;;;;-143.84;88.30;45140.47;5109135;28;20453;-71
2022/10/08 03:55:48;;;;;;;18.40;13.33;;;;;;;-143.84;89.29;45100.47;5112530;28;20534;-71
2022/10/08 03:58:15;;;;;;;19.90;13.93;;;;;;;-143.84;90.39;45144.28;5112156;28;20445;-71
2022/10/08 04:00:43;;;;;;;24.77;14.70;;;;;;;-143.84;91.09;45119.53;5112432;28;20434;-71
2022/10/08 04:03:11;;;;;;;19.63;15.40;;;;;;;-143.84;91.75;45127.13;5112436;28;20439;-71
2022/10/08 04:05:38;;;;;;;23.93;14.70;;;;;;;-143.84;93.02;45129.03;5112225;28;20446;-73
2022/10/08 04:08:06;;;;;;;19.27;16.30;;;;;;;-143.84;93.68;45113.81;5112128;28;20435;-74
2022/10/08 04:10:38;;;;;;;25.43;18.10;;;;;;;-143.84;94.50;45132.84;5111966;28;20480;-74
2022/10/08 04:13:05;;;;;;;26.63;16.50;;;;;;;-143.84;94.91;45136.66;5111799;28;20431;-75
2022/10/08 04:15:32;;;;;;;29.00;16.57;;;;;;;-143.84;95.27;45144.28;5111868;28;20492;-75
2022/10/08 04:17:59;;;;;;;30.00;18.53;;;;;;;-143.84;95.27;45144.28;5111934;28;20504;-75
2022/10/08 04:20:27;;;;;;;24.30;16.07;;;;;;;-143.84;95.17;45132.84;5100997;28;20441;-75
2022/10/08 04:22:54;;;;;;;28.40;16.47;;;;;;;-143.84;95.33;45125.22;5099395;28;20868;-75
2022/10/08 04:25:22;;;;;;;27.47;15.20;;;;;;;-143.84;95.05;45130.94;5091214;28;20484;-74
2022/10/08 04:27:49;;;;;;;25.23;15.10;;;;;;;-143.84;95.13;45150.00;5091251;28;20498;-74
2022/10/08 04:30:17;;;;;;;18.27;15.00;;;;;;;-143.84;94.87;45159.50;5075666;28;20858;-73
2022/10/08 04:32:44;;;;;;;21.00;13.87;;;;;;;-143.84;94.63;45138.56;5086237;28;20440;-73
2022/10/08 04:35:11;;;;;;;19.00;13.47;;;;;;;-143.84;94.51;45132.84;5090768;28;20857;-74
2022/10/08 04:37:39;;;;;;;17.90;14.27;;;;;;;-143.84;94.59;45140.47;5099228;28;20512;-70
2022/10/08 04:40:07;;;;;;;17.60;13.07;;;;;;;-143.84;94.68;45151.91;5091354;28;20529;-70
2022/10/08 04:42:35;;;;;;;19.63;13.10;;;;;;;-143.84;94.36;45148.09;5096571;28;20475;-70
2022/10/08 04:45:02;;;;;;;15.60;12.97;;;;;;;-143.84;94.17;45153.81;5111376;28;20494;-70
2022/10/08 04:47:29;;;;;;;18.13;12.57;;;;;;;-143.84;94.02;45138.56;5111240;28;20502;-70
2022/10/08 04:49:57;;;;;;;16.87;13.37;;;;;;;-143.84;93.71;45148.09;5111529;28;21096;-71
2022/10/08 04:52:24;;;;;;;23.23;12.87;;;;;;;-143.84;93.37;45140.47;5111563;28;20516;-70
2022/10/08 04:54:51;;;;;;;18.27;12.90;;;;;;;-143.84;93.08;45159.50;5104743;28;20491;-71
2022/10/08 04:57:18;;;;;;;19.60;12.17;;;;;;;-143.84;92.88;45129.03;5091049;28;20474;-70
2022/10/08 04:59:47;;;;;;;14.93;12.57;;;;;;;-143.84;92.68;45108.09;5090470;28;20435;-70
2022/10/08 05:02:14;;;;;;;17.30;11.53;;;;;;;-143.84;92.33;45121.44;5090912;28;20504;-70
2022/10/08 05:04:41;;;;;;;15.23;11.83;;;;;;;-143.84;91.90;45151.91;5090138;28;20432;-71
2022/10/08 05:07:08;;;;;;;13.17;11.40;;;;;;;-143.84;91.86;45125.22;5090919;28;20442;-71
2022/10/08 05:09:35;;;;;;;14.73;12.90;;;;;;;-143.84;91.59;45153.81;5090713;28;21004;-70
2022/10/08 05:12:03;;;;;;;16.60;11.50;;;;;;;-143.84;91.28;45134.75;5090686;28;20517;-70
2022/10/08 05:14:30;;;;;;;16.73;11.43;;;;;;;-143.84;91.26;45134.75;5090108;28;20436;-71
2022/10/08 05:16:58;;;;;;;13.97;11.13;;;;;;;-143.84;91.15;45146.19;5090439;28;20540;-70
2022/10/08 05:19:25;;;;;;;19.27;10.83;;;;;;;-143.84;91.12;45132.84;5090223;28;20454;-71
2022/10/08 05:21:53;;;;;;;16.83;11.70;;;;;;;-143.84;90.95;45146.19;5090511;28;20474;-71
2022/10/08 05:24:20;;;;;;;13.47;10.70;;;;;;;-143.84;90.52;45104.28;5090397;28;20942;-70
2022/10/08 05:26:47;;;;;;;20.70;10.00;;;;;;;-143.84;89.66;45129.03;5090682;28;20482;-70
2022/10/08 05:29:14;;;;;;;18.80;10.17;;;;;;;-143.84;88.36;45106.19;5088332;28;20501;-71
2022/10/08 05:31:41;;;;;;;13.60;9.10;;;;;;;-143.84;87.13;45098.56;5088862;28;20958;-70
2022/10/08 05:34:10;;;;;;;18.03;9.50;;;;;;;-143.84;85.69;45113.81;5088637;28;20491;-70
2022/10/08 05:36:37;;;;;;;14.30;9.37;;;;;;;-143.84;83.94;45102.38;5088862;28;20488;-71
2022/10/08 05:39:06;;;;;;;14.00;9.00;;;;;;;-143.84;83.11;45115.72;5088880;28;21217;-71
2022/10/08 05:41:35;;;;;;;9.80;7.97;;;;;;;-143.84;81.75;45115.72;5088844;28;20482;-71
2022/10/08 05:44:03;;;;;;;14.37;7.53;;;;;;;-143.84;81.04;45096.66;5105657;28;20482;-71
2022/10/08 05:46:32;;;;;;;13.07;8.23;;;;;;;-143.84;79.71;45108.09;5109093;28;20446;-71
2022/10/08 05:49:01;;;;;;;12.20;7.50;;;;;;;-143.84;79.16;45106.19;5096250;28;20447;-71
2022/10/08 05:51:31;;;;;;;9.17;7.70;;;;;;;-143.84;78.19;45123.34;5089755;28;20825;-71
2022/10/08 05:54:00;;;;;;;8.00;7.10;;;;;;;-143.84;78.17;45106.19;5088974;28;20443;-71
2022/10/08 05:56:30;;;;;;;8.37;7.20;;;;;;;-143.84;77.83;45115.72;5088993;28;21061;-71
2022/10/08 05:58:57;;;;;;;17.57;7.23;;;;;;;-143.84;77.24;45092.88;5088372;28;20427;-71
2022/10/08 06:01:26;;;;;;;11.03;6.00;;;;;;;-143.84;76.55;45108.09;5089431;28;20443;-71
2022/10/08 06:03:55;;;;;;;11.27;8.00;;;;;;;-143.84;75.91;45102.38;5089426;28;20523;-71
2022/10/08 06:06:23;;;;;;;14.77;6.80;;;;;;;-143.84;75.28;45106.19;5089564;28;21016;-71
2022/10/08 06:08:57;;;;;;;10.63;6.97;;;;;;;-143.84;74.24;45071.91;5089964;28;20432;-71
2022/10/08 06:11:24;;;;;;;7.40;6.23;;;;;;;-143.84;72.81;45081.44;5089519;28;20471;-71
2022/10/08 06:13:53;;;;;;;7.53;6.73;;;;;;;-143.84;72.33;45094.78;5089074;28;20436;-71
2022/10/08 06:16:21;;;;;;;7.50;6.73;;;;;;;-143.84;71.20;45090.97;5088413;28;21111;-71
2022/10/08 06:18:48;;;;;;;11.90;6.00;;;;;;;-143.84;70.20;45083.34;5089223;28;20672;-71
2022/10/08 06:21:17;;;;;;;7.00;6.30;;;;;;;-143.84;69.28;45075.72;5089285;28;20436;-72
2022/10/08 06:23:47;;;;;;;13.97;6.10;;;;;;;-143.84;68.61;45075.72;5089487;28;20439;-71
2022/10/08 06:26:17;;;;;;;8.30;5.57;;;;;;;-143.84;68.43;45077.63;5089548;28;20420;-71
2022/10/08 06:28:44;;;;;;;6.60;5.90;;;;;;;-143.84;67.98;45068.13;5088872;28;20482;-71
2022/10/08 06:31:12;;;;;;;10.83;5.93;;;;;;;-143.84;67.21;45106.19;5089008;28;20481;-72
2022/10/08 06:33:39;;;;;;;8.30;5.90;;;;;;;-143.84;65.89;45075.72;5089007;28;20444;-71
2022/10/08 06:36:08;;;;;;;9.07;6.47;;;;;;;-143.84;65.77;45079.53;5089256;28;20996;-71
2022/10/08 06:38:35;;;;;;;6.60;5.47;;;;;;;-143.84;64.82;45060.50;5088914;28;20810;-71
2022/10/08 06:41:02;;;;;;;10.60;6.00;;;;;;;-143.84;64.21;45050.97;5088971;28;20497;-72
2022/10/08 06:43:31;;;;;;;7.53;4.90;;;;;;;-143.84;62.94;45068.13;5099808;28;20838;-71
2022/10/08 06:45:59;;;;;;;13.33;5.60;;;;;;;-143.84;62.51;45085.25;5109660;28;20439;-71
2022/10/08 06:48:27;;;;;;;7.77;5.63;;;;;;;-143.84;61.21;45056.69;5109019;28;20476;-73
2022/10/08 06:50:59;;;;;;;8.93;5.67;;;;;;;-143.84;60.18;45070.00;5109222;28;20431;-72
2022/10/08 06:53:26;;;;;;;6.27;4.73;;;;;;;-143.84;59.92;45049.06;5109175;28;20435;-72
2022/10/08 06:55:57;;;;;;;9.60;5.63;;;;;;;-143.84;60.55;45068.13;5108747;28;20496;-70
2022/10/08 06:58:25;;;;;;;6.03;5.27;;;;;;;-143.84;59.90;45070.00;5107890;28;20539;-72
2022/10/08 07:01:02;;;;;;;16.13;5.10;;;;;;;-143.84;57.73;45056.69;5108903;28;20959;-72
2022/10/08 07:03:30;;;;;;;27.07;5.30;;;;;;;-143.84;55.37;45049.06;5109045;28;20853;-72
2022/10/08 07:06:00;;;;;;;14.47;5.00;;;;;;;-143.84;54.30;45077.63;5109484;28;20430;-72
2022/10/08 07:08:28;;;;;;;5.50;5.00;;;;;;;-143.84;54.48;45047.16;5109224;28;20438;-72
2022/10/08 07:10:55;;;;;;;11.10;4.87;;;;;;;-143.84;54.46;45050.97;5109346;28;20852;-71
2022/10/08 07:13:22;;;;;;;6.70;5.30;;;;;;;-143.84;53.41;45037.66;5108440;28;20459;-72
2022/10/08 07:15:49;;;;;;;6.57;4.40;;;;;;;-143.84;54.28;45064.31;5108959;28;20446;-72
2022/10/08 07:18:18;;;;;;;11.90;5.53;;;;;;;-143.84;54.43;45056.69;5109069;28;20475;-74
2022/10/08 07:20:55;;;;;;;5.07;4.57;;;;;;;-143.84;54.61;45030.03;5114350;28;20431;-78
2022/10/08 07:23:22;;;;;;;10.17;5.30;;;;;;;-143.84;53.91;45031.94;5109620;28;20434;-74
2022/10/08 07:25:56;;;;;;;13.63;4.60;;;;;;;-143.84;52.99;45039.53;5112678;28;20423;-77
2022/10/08 07:28:23;;;;;;;11.90;5.03;;;;;;;-143.84;51.02;45062.41;5110858;28;20438;-75
2022/10/08 07:30:50;;;;;;;9.23;4.47;;;;;;;-143.84;50.36;45060.50;5115499;28;20443;-75
2022/10/08 07:33:19;;;;;;;5.10;4.60;;;;;;;-143.84;48.93;45024.31;5112859;28;21005;-74
2022/10/08 07:35:47;;;;;;;6.60;4.53;;;;;;;-143.84;49.20;45037.66;5112507;28;20442;-75
2022/10/08 07:38:17;;;;;;;5.87;4.83;;;;;;;-143.84;47.78;45030.03;5112792;28;20470;-74
2022/10/08 07:40:45;;;;;;;9.57;4.50;;;;;;;-143.84;47.08;45024.31;5112484;28;20449;-75
2022/10/08 07:43:12;;;;;;;10.30;4.87;;;;;;;-143.84;46.78;45018.59;5112232;28;21054;-77
2022/10/08 07:45:45;;;;;;;7.50;4.60;;;;;;;-143.84;46.01;45039.53;5113010;28;20523;-75
2022/10/08 07:48:12;;;;;;;6.20;4.33;;;;;;;-143.84;45.92;45012.88;5112903;28;20438;-76
2022/10/08 07:50:40;;;;;;;8.13;4.60;;;;;;;-143.84;45.24;45033.84;5112426;28;20443;-76
2022/10/08 07:53:08;;;;;;;5.43;4.37;;;;;;;-143.84;44.02;45030.03;5112211;28;20447;-76
2022/10/08 07:55:35;;;;;;;5.20;3.97;;;;;;;-143.84;44.46;45041.44;5112476;28;20480;-76
2022/10/08 07:58:02;;;;;;;8.47;4.20;;;;;;;-143.84;44.77;45047.16;5111318;28;20474;-76
2022/10/08 08:00:29;;;;;;;7.63;4.10;;;;;;;-143.84;44.28;45005.28;5112560;28;20500;-76
2022/10/08 08:02:56;;;;;;;11.30;4.97;;;;;;;-143.84;43.67;45026.22;5112230;28;20443;-76
2022/10/08 08:05:23;;;;;;;9.10;3.27;;;;;;;-143.84;43.34;45014.78;5112218;28;20442;-76
2022/10/08 08:07:52;;;;;;;22.67;3.53;;;;;;;-143.84;41.76;45014.78;5112166;28;20442;-76
2022/10/08 08:10:19;;;;;;;6.03;3.90;;;;;;;-143.84;40.74;45022.41;5112320;28;20921;-76
2022/10/08 08:12:46;;;;;;;8.93;3.93;;;;;;;-143.84;40.58;45030.03;5111794;28;20431;-76
2022/10/08 08:15:13;;;;;;;9.90;4.03;;;;;;;-143.84;40.57;45030.03;5112312;28;20932;-76
2022/10/08 08:17:40;;;;;;;5.67;3.73;;;;;;;-143.84;41.00;44993.84;5112562;28;20984;-75
2022/10/08 08:20:09;;;;;;;5.13;3.23;;;;;;;-143.84;40.07;45014.78;5114589;28;20482;-79
2022/10/08 08:22:36;;;;;;;5.90;3.80;;;;;;;-143.84;39.38;45030.03;5116137;28;20821;-79
2022/10/08 08:25:05;;;;;;;4.90;4.10;;;;;;;-143.84;40.10;45020.50;5116600;28;20435;-79
2022/10/08 08:27:32;;;;;;;11.47;3.33;;;;;;;-143.84;39.10;45031.94;5115810;28;20442;-79
2022/10/08 08:30:00;;;;;;;10.13;3.90;;;;;;;-143.84;39.44;45028.13;5116084;28;20438;-79
2022/10/08 08:32:27;;;;;;;8.90;4.40;;;;;;;-143.84;39.12;44995.75;5111732;28;20439;-76
2022/10/08 08:34:54;;;;;;;4.10;3.80;;;;;;;-143.84;38.93;45014.78;5111661;28;20441;-76
2022/10/08 08:37:21;;;;;;;8.33;3.87;;;;;;;-143.84;38.96;45012.88;5081044;28;20897;-76
2022/10/08 08:39:49;;;;;;;6.90;4.33;;;;;;;-143.84;38.66;45039.53;5069877;28;20444;-76
2022/10/08 08:42:38;;;;;;;4.57;4.13;;;;;;;-143.84;38.65;45003.38;5071171;28;20760;-76
2022/10/08 08:45:18;;;;;;;6.57;3.30;;;;;;;-143.84;38.85;45007.19;5088858;28;20883;-76
2022/10/08 08:47:54;;;;;;;4.83;3.93;;;;;;;-143.84;39.04;45018.59;5091291;28;20539;-76
2022/10/08 08:50:26;;;;;;;8.57;4.17;;;;;;;-143.84;38.04;45030.03;5091063;28;20929;-76
2022/10/08 08:52:54;;;;;;;5.73;3.77;;;;;;;-143.84;38.42;45009.09;5090370;28;20503;-76
2022/10/08 08:55:30;;;;;;;4.50;3.60;;;;;;;-143.84;37.55;45010.97;5088951;28;20444;-76
2022/10/08 08:58:06;;;;;;;8.13;3.80;;;;;;;-143.84;37.32;45012.88;5089098;28;20483;-76
2022/10/08 09:00:36;;;;;;;10.10;4.20;;;;;;;-143.84;37.46;45005.28;5089336;28;20436;-76
2022/10/08 09:03:12;;;;;;;7.87;3.80;;;;;;;-143.84;37.59;45010.97;5089125;28;20432;-76
2022/10/08 09:05:42;;;;;;;9.20;4.70;;;;;;;-143.84;38.69;44988.13;5088910;28;20485;-76
2022/10/08 09:08:18;;;;;;;5.93;3.97;;;;;;;-143.84;38.93;45007.19;5090108;28;20488;-76
2022/10/08 09:10:48;;;;;;;6.40;4.53;;;;;;;-143.84;39.35;45009.09;5090767;28;20451;-76
2022/10/08 09:13:20;;;;;;;7.47;3.63;;;;;;;-143.84;38.58;45014.78;5090530;28;20435;-76
2022/10/08 09:15:48;;;;;;;7.10;4.13;;;;;;;-143.84;38.77;45010.97;5090418;28;20814;-76
2022/10/08 09:18:16;;;;;;;6.73;4.50;;;;;;;-143.84;39.31;45024.31;5090429;28;20476;-76
2022/10/08 09:20:44;;;;;;;4.30;3.90;;;;;;;-143.84;39.77;45020.50;5090303;28;20467;-76
2022/10/08 09:23:15;;;;;;;14.93;4.93;;;;;;;-143.84;40.00;45030.03;5090402;28;20913;-76
2022/10/08 09:25:44;;;;;;;12.47;4.73;;;;;;;-143.84;39.76;45016.69;5090032;28;20444;-76
2022/10/08 09:28:11;;;;;;;4.77;3.50;;;;;;;-143.84;39.64;45005.28;5090506;28;20447;-76
2022/10/08 09:30:43;;;;;;;4.80;3.63;;;;;;;-143.84;39.29;45010.97;5090409;28;20485;-76
2022/10/08 09:33:24;;;;;;;3.73;3.43;;;;;;;-143.84;38.02;45035.75;5090307;28;20450;-76
2022/10/08 09:35:52;;;;;;;4.80;3.50;;;;;;;-143.84;39.15;44995.75;5090248;28;20427;-76
2022/10/08 09:38:25;;;;;;;5.70;3.83;;;;;;;-143.84;38.57;45007.19;5089883;28;20475;-76
2022/10/08 09:41:03;;;;;;;6.07;2.93;;;;;;;-143.84;39.06;44990.03;5089838;28;21147;-76
2022/10/08 09:43:32;;;;;;;6.20;3.30;;;;;;;-143.84;38.37;45007.19;5090054;28;20536;-76
2022/10/08 09:46:04;;;;;;;10.47;3.67;;;;;;;-143.84;37.98;45003.38;5089976;28;20447;-76
2022/10/08 09:48:31;;;;;;;5.20;3.33;;;;;;;-143.84;37.79;44982.41;5089821;28;20664;-76
2022/10/08 09:51:02;;;;;;;5.50;3.80;;;;;;;-143.84;37.58;44990.03;5090261;28;20436;-76
2022/10/08 09:53:35;;;;;;;3.93;3.13;;;;;;;-143.84;37.46;45010.97;5089856;28;20440;-76
2022/10/08 09:56:04;;;;;;;7.03;3.63;;;;;;;-143.84;38.20;45012.88;5089015;28;20432;-76
2022/10/08 09:58:34;;;;;;;5.00;3.27;;;;;;;-143.84;37.67;45001.47;5090044;28;20911;-76
2022/10/08 10:01:06;;;;;;;12.83;3.53;;;;;;;-143.84;37.43;45031.94;5089865;28;20444;-75
2022/10/08 10:03:36;;;;;;;3.70;3.37;;;;;;;-143.84;38.09;44991.94;5089588;28;20428;-76
2022/10/08 10:06:03;;;;;;;8.20;4.30;;;;;;;-143.84;37.96;44999.56;5089801;28;20477;-76
2022/10/08 10:08:54;;;;;;;3.90;3.20;;;;;;;-143.84;38.13;45016.69;5089547;28;20536;-76
2022/10/08 10:11:27;;;;;;;8.10;3.37;;;;;;;-143.84;38.58;44991.94;5088741;28;20462;-76
2022/10/08 10:13:57;;;;;;;4.60;4.03;;;;;;;-143.84;37.30;45010.97;5089672;28;20501;-76
2022/10/08 10:16:33;;;;;;;7.80;3.70;;;;;;;-143.84;38.24;45010.97;5089408;28;20848;-76
2022/10/08 10:19:06;;;;;;;4.50;3.60;;;;;;;-143.84;38.12;45035.75;5089775;28;20483;-76
2022/10/08 10:21:42;;;;;;;5.60;4.23;;;;;;;-143.84;38.49;45033.84;5089254;28;20431;-76
2022/10/08 10:24:32;;;;;;;5.00;2.77;;;;;;;-143.84;39.06;45010.97;5089013;28;20431;-76
2022/10/08 10:27:06;;;;;;;3.67;3.43;;;;;;;-143.84;39.58;45007.19;5089466;28;20436;-76
2022/10/08 10:29:47;;;;;;;7.50;3.60;;;;;;;-143.84;40.49;45024.31;5089168;28;20432;-76
2022/10/08 10:32:22;;;;;;;3.67;3.40;;;;;;;-143.84;40.26;45028.13;5089526;28;20508;-76
2022/10/08 10:34:59;;;;;;;6.57;3.00;;;;;;;-143.84;39.47;45007.19;5089264;28;20440;-76
2022/10/08 10:37:36;;;;;;;6.60;3.53;;;;;;;-143.84;38.71;45016.69;5089121;28;20439;-76
2022/10/08 10:40:22;;;;;;;7.40;3.83;;;;;;;-143.84;39.37;45026.22;5088922;28;20802;-76
2022/10/08 10:42:55;;;;;;;11.30;3.73;;;;;;;-143.84;39.32;44991.94;5089403;28;20569;-76
2022/10/08 10:45:25;;;;;;;11.20;4.10;;;;;;;-143.84;39.07;45022.41;5089225;28;20531;-76
2022/10/08 10:47:55;;;;;;;8.37;3.40;;;;;;;-143.84;38.93;45009.09;5089078;28;20945;-76
2022/10/08 10:50:29;;;;;;;8.50;3.43;;;;;;;-143.84;38.12;45026.22;5089052;28;20447;-76
2022/10/08 10:53:10;;;;;;;7.33;3.07;;;;;;;-143.84;38.72;45012.88;5088803;28;20432;-76
2022/10/08 10:55:40;;;;;;;8.03;3.47;;;;;;;-143.84;37.78;45010.97;5092468;28;20515;-76
2022/10/08 10:58:27;;;;;;;10.50;3.53;;;;;;;-143.84;37.84;45020.50;5109285;28;20474;-76
2022/10/08 11:01:03;;;;;;;3.67;3.17;;;;;;;-143.84;37.41;45045.25;5109196;28;20932;-76
2022/10/08 11:03:43;;;;;;;4.10;3.80;;;;;;;-143.84;38.61;45031.94;5111308;28;20442;-76
2022/10/08 11:06:33;;;;;;;5.47;3.90;;;;;;;-143.84;38.09;45016.69;5113459;28;20461;-76
2022/10/08 11:09:07;;;;;;;6.77;3.77;;;;;;;-143.84;37.36;45026.22;5113382;28;20836;-76
2022/10/08 11:11:40;;;;;;;5.73;3.53;;;;;;;-143.84;37.85;45037.66;5113372;28;21153;-76
2022/10/08 11:14:33;;;;;;;5.43;3.57;;;;;;;-143.84;38.95;45014.78;5113375;28;20439;-76
2022/10/08 11:17:09;;;;;;;3.97;3.63;;;;;;;-143.84;39.26;45005.28;5113147;28;20435;-76
2022/10/08 11:19:48;;;;;;;5.17;3.53;;;;;;;-143.84;39.24;45045.25;5113084;28;20531;-76
2022/10/08 11:22:24;;;;;;;5.23;3.33;;;;;;;-143.84;39.33;45009.09;5113211;28;20858;-76
2022/10/08 11:25:21;;;;;;;5.00;3.60;;;;;;;-143.84;37.97;45001.47;5113001;28;21029;-76